Time;durP1;ratioP1;P1;durP2;ratioP2;P2;SDS_P1;SDS_P2;PMS_P1;PMS_P2;Temp;Humidity;BMP_temperature;BMP_pressure;BME280_temperature;BME280_humidity;BME280_pressure;Samples;Min_cycle;Max_cycle;Signal;HPM_P1;HPM_P2
2023/07/23 00:00:39;;;;;;;13.07;6.28;;;14.80;99.90;;;;;;5051588;28;20053;-71
2023/07/23 00:03:05;;;;;;;13.60;6.72;;;14.80;99.90;;;;;;5052181;28;20050;-71
2023/07/23 00:05:31;;;;;;;15.23;6.60;;;14.80;99.90;;;;;;5052622;28;20400;-72
2023/07/23 00:07:58;;;;;;;13.85;6.35;;;14.90;99.90;;;;;;5051034;28;20045;-72
2023/07/23 00:10:24;;;;;;;13.48;6.15;;;14.90;99.90;;;;;;5054173;28;20045;-72
2023/07/23 00:12:51;;;;;;;12.82;7.13;;;14.90;99.90;;;;;;5054887;28;20128;-72
2023/07/23 00:15:17;;;;;;;15.45;6.82;;;14.90;99.90;;;;;;5053849;28;20063;-72
2023/07/23 00:17:43;;;;;;;15.73;6.35;;;14.90;99.90;;;;;;5055649;28;20037;-72
2023/07/23 00:20:10;;;;;;;12.40;5.70;;;14.90;99.90;;;;;;5053486;28;20064;-72
2023/07/23 00:22:37;;;;;;;14.45;7.20;;;15.00;99.90;;;;;;5052624;28;20049;-72
2023/07/23 00:25:05;;;;;;;12.20;6.35;;;14.90;99.90;;;;;;5055551;28;20083;-72
2023/07/23 00:27:32;;;;;;;13.13;6.75;;;14.80;99.90;;;;;;5053756;28;20063;-71
2023/07/23 00:29:58;;;;;;;11.40;6.28;;;14.80;99.90;;;;;;5055102;28;20064;-72
2023/07/23 00:32:24;;;;;;;11.40;6.32;;;14.90;99.90;;;;;;5058440;28;20051;-71
2023/07/23 00:34:49;;;;;;;13.48;7.13;;;14.80;99.90;;;;;;5057954;28;20045;-72
2023/07/23 00:37:15;;;;;;;11.63;6.15;;;14.90;99.90;;;;;;5060165;28;20039;-72
2023/07/23 00:39:41;;;;;;;13.80;6.88;;;14.90;99.90;;;;;;5057811;28;20491;-73
2023/07/23 00:42:07;;;;;;;13.23;7.18;;;14.90;99.90;;;;;;5054922;28;20718;-71
2023/07/23 00:44:33;;;;;;;11.65;6.78;;;14.80;99.90;;;;;;5055234;28;20051;-71
2023/07/23 00:47:03;;;;;;;13.57;6.68;;;14.80;99.90;;;;;;5053855;28;20081;-72
2023/07/23 00:49:32;;;;;;;12.73;6.88;;;14.80;99.90;;;;;;5052128;28;20112;-71
2023/07/23 00:52:07;;;;;;;12.05;6.50;;;14.70;99.90;;;;;;5051650;28;20378;-71
2023/07/23 00:54:33;;;;;;;12.75;7.28;;;14.80;99.90;;;;;;5052536;28;20041;-72
2023/07/23 00:57:02;;;;;;;13.75;7.13;;;14.80;99.90;;;;;;5051868;28;20489;-72
2023/07/23 00:59:32;;;;;;;13.85;6.90;;;14.80;99.90;;;;;;5051652;28;20044;-72
2023/07/23 01:01:58;;;;;;;11.90;6.57;;;14.80;99.90;;;;;;5050561;28;20041;-72
2023/07/23 01:04:25;;;;;;;11.43;7.35;;;14.90;99.90;;;;;;5050104;28;20041;-72
2023/07/23 01:06:56;;;;;;;10.75;6.15;;;14.80;99.90;;;;;;5050944;28;20045;-72
2023/07/23 01:09:23;;;;;;;11.70;6.85;;;14.80;99.90;;;;;;5050782;28;20052;-72
2023/07/23 01:11:51;;;;;;;13.05;6.38;;;14.80;99.90;;;;;;5050611;28;20507;-72
2023/07/23 01:14:17;;;;;;;10.48;6.25;;;14.90;99.90;;;;;;5050969;28;20473;-72
2023/07/23 01:16:44;;;;;;;13.02;5.88;;;14.80;99.90;;;;;;5051408;28;20114;-72
2023/07/23 01:19:12;;;;;;;12.38;6.65;;;14.80;99.90;;;;;;5051387;28;20393;-72
2023/07/23 01:21:38;;;;;;;12.23;6.97;;;14.80;99.90;;;;;;5051811;28;20110;-72
2023/07/23 01:24:04;;;;;;;11.02;6.68;;;14.80;99.90;;;;;;5050290;28;20044;-72
2023/07/23 01:26:30;;;;;;;11.40;6.13;;;14.80;99.90;;;;;;5051300;28;20048;-72
2023/07/23 01:28:56;;;;;;;11.10;5.63;;;14.80;99.90;;;;;;5050898;28;20051;-72
2023/07/23 01:31:22;;;;;;;12.65;6.60;;;14.90;99.90;;;;;;5050320;28;20431;-72
2023/07/23 01:33:48;;;;;;;12.60;7.03;;;15.30;99.90;;;;;;5050602;28;20159;-73
2023/07/23 01:36:16;;;;;;;12.43;6.85;;;14.80;99.90;;;;;;5051070;28;20099;-73
2023/07/23 01:38:42;;;;;;;12.13;6.10;;;14.80;99.90;;;;;;5050347;28;20128;-72
2023/07/23 01:41:11;;;;;;;12.32;7.00;;;14.80;99.90;;;;;;5051937;28;20488;-72
2023/07/23 01:43:39;;;;;;;13.50;6.95;;;14.80;99.90;;;;;;5050781;28;20045;-72
2023/07/23 01:46:05;;;;;;;11.55;5.95;;;14.80;99.90;;;;;;5049953;28;20041;-72
2023/07/23 01:48:33;;;;;;;11.65;6.25;;;14.80;99.90;;;;;;5052115;28;20476;-72
2023/07/23 01:50:59;;;;;;;12.65;6.70;;;14.70;99.90;;;;;;5050593;28;20128;-72
2023/07/23 01:53:28;;;;;;;11.40;5.57;;;14.70;99.90;;;;;;5051186;28;20121;-72
2023/07/23 01:55:57;;;;;;;13.82;6.43;;;14.80;99.90;;;;;;5052173;28;20431;-71
2023/07/23 01:58:23;;;;;;;9.35;5.28;;;14.70;99.90;;;;;;5054465;28;20045;-71
2023/07/23 02:00:49;;;;;;;10.15;5.40;;;14.80;99.90;;;;;;5053309;28;20103;-71
2023/07/23 02:03:15;;;;;;;13.27;6.57;;;14.80;99.90;;;;;;5055663;28;20458;-71
2023/07/23 02:05:40;;;;;;;12.60;7.05;;;14.80;99.90;;;;;;5054658;28;20072;-71
2023/07/23 02:08:09;;;;;;;10.02;6.07;;;14.70;99.90;;;;;;5054496;28;20400;-71
2023/07/23 02:10:35;;;;;;;13.63;6.53;;;14.80;99.90;;;;;;5055268;28;20037;-71
2023/07/23 02:13:04;;;;;;;10.95;6.55;;;14.80;99.90;;;;;;5055033;28;20454;-71
2023/07/23 02:15:30;;;;;;;11.57;5.57;;;14.90;99.90;;;;;;5054149;28;20182;-71
2023/07/23 02:17:55;;;;;;;10.73;6.10;;;14.80;99.90;;;;;;5054087;28;20135;-71
2023/07/23 02:20:21;;;;;;;12.70;6.40;;;14.80;99.90;;;;;;5052642;28;20049;-71
2023/07/23 02:22:47;;;;;;;12.10;5.63;;;14.80;99.90;;;;;;5054014;28;20037;-71
2023/07/23 02:25:13;;;;;;;10.90;6.07;;;14.90;99.90;;;;;;5055402;28;20130;-71
2023/07/23 02:27:39;;;;;;;9.18;5.50;;;14.90;99.90;;;;;;5052974;28;20078;-71
2023/07/23 02:30:05;;;;;;;10.73;5.32;;;15.00;99.90;;;;;;5055178;28;20040;-71
2023/07/23 02:32:31;;;;;;;13.07;6.53;;;15.00;99.90;;;;;;5053747;28;20057;-71
2023/07/23 02:34:57;;;;;;;8.57;5.30;;;15.00;99.90;;;;;;5054149;28;20052;-71
2023/07/23 02:37:26;;;;;;;9.95;6.40;;;15.00;99.90;;;;;;5055344;28;20049;-71
2023/07/23 02:39:53;;;;;;;12.38;5.93;;;15.00;99.90;;;;;;5053316;28;20134;-71
2023/07/23 02:42:19;;;;;;;12.57;7.35;;;15.00;99.90;;;;;;5052510;28;20485;-71
2023/07/23 02:44:44;;;;;;;12.10;6.65;;;15.00;99.90;;;;;;5052960;28;20131;-71
2023/07/23 02:47:10;;;;;;;11.07;6.00;;;15.10;99.90;;;;;;5054005;28;20055;-71
2023/07/23 02:49:36;;;;;;;13.50;6.40;;;15.10;99.90;;;;;;5052778;28;20692;-72
2023/07/23 02:52:04;;;;;;;10.68;6.32;;;15.10;99.90;;;;;;5053918;28;20099;-72
2023/07/23 02:54:30;;;;;;;11.70;6.07;;;15.20;99.90;;;;;;5053423;28;20088;-72
2023/07/23 02:56:56;;;;;;;10.85;6.05;;;15.10;99.90;;;;;;5052702;28;20092;-71
2023/07/23 02:59:22;;;;;;;9.80;6.40;;;15.10;99.90;;;;;;5054339;28;20041;-72
2023/07/23 03:01:47;;;;;;;11.05;6.55;;;15.10;99.90;;;;;;5053092;28;20045;-71
2023/07/23 03:04:13;;;;;;;12.88;6.00;;;15.10;99.90;;;;;;5053618;28;20103;-71
2023/07/23 03:06:42;;;;;;;12.45;6.35;;;15.10;99.90;;;;;;5053243;28;20136;-72
2023/07/23 03:09:08;;;;;;;10.95;5.55;;;15.10;99.90;;;;;;5052727;28;20069;-71
2023/07/23 03:11:34;;;;;;;12.45;7.03;;;15.10;99.90;;;;;;5054400;28;20079;-72
2023/07/23 03:14:00;;;;;;;12.32;7.07;;;15.10;99.90;;;;;;5052954;28;20136;-72
2023/07/23 03:16:25;;;;;;;12.00;7.10;;;15.10;99.90;;;;;;5052247;28;20037;-72
2023/07/23 03:18:51;;;;;;;12.85;7.07;;;15.10;99.90;;;;;;5053776;28;20371;-72
2023/07/23 03:21:16;;;;;;;12.68;6.72;;;15.00;99.90;;;;;;5054052;28;20091;-71
2023/07/23 03:23:42;;;;;;;12.13;6.38;;;15.10;99.90;;;;;;5053156;28;20373;-72
2023/07/23 03:26:13;;;;;;;13.30;6.68;;;15.10;99.90;;;;;;5052722;28;20044;-71
2023/07/23 03:28:40;;;;;;;10.10;6.35;;;15.10;99.90;;;;;;5052666;28;20080;-71
2023/07/23 03:31:05;;;;;;;11.80;6.07;;;15.10;99.90;;;;;;5051720;28;20045;-71
2023/07/23 03:33:31;;;;;;;14.60;7.05;;;15.20;99.90;;;;;;5052348;28;20090;-71
2023/07/23 03:35:59;;;;;;;12.65;7.22;;;15.10;99.90;;;;;;5052391;28;20052;-72
2023/07/23 03:38:25;;;;;;;13.68;6.55;;;15.10;99.90;;;;;;5052243;28;20041;-71
2023/07/23 03:40:51;;;;;;;14.32;7.05;;;15.00;99.90;;;;;;5051332;28;20722;-72
2023/07/23 03:43:17;;;;;;;12.52;6.35;;;15.00;99.90;;;;;;5053217;28;20510;-71
2023/07/23 03:45:43;;;;;;;12.75;6.68;;;15.00;99.90;;;;;;5051658;28;20041;-72
2023/07/23 03:48:09;;;;;;;12.65;6.80;;;15.10;99.90;;;;;;5052340;28;20588;-72
2023/07/23 03:50:34;;;;;;;12.63;6.93;;;15.00;99.90;;;;;;5052110;28;20044;-72
2023/07/23 03:53:00;;;;;;;12.60;7.10;;;15.10;99.90;;;;;;5051289;28;20071;-72
2023/07/23 03:55:29;;;;;;;14.43;6.43;;;15.10;99.90;;;;;;5052122;28;20100;-72
2023/07/23 03:57:55;;;;;;;12.93;6.75;;;15.10;99.90;;;;;;5051986;28;20128;-72
2023/07/23 04:00:20;;;;;;;12.57;6.50;;;15.10;99.90;;;;;;5050804;28;20579;-72
2023/07/23 04:02:46;;;;;;;12.05;6.47;;;15.20;99.90;;;;;;5052814;28;20536;-73
2023/07/23 04:05:12;;;;;;;13.88;6.60;;;15.20;99.90;;;;;;5051081;28;20132;-72
2023/07/23 04:07:43;;;;;;;11.57;6.50;;;15.10;99.90;;;;;;5052751;28;20037;-72
2023/07/23 04:10:09;;;;;;;11.77;6.68;;;15.10;99.90;;;;;;5053470;28;20102;-72
2023/07/23 04:12:35;;;;;;;10.82;6.32;;;15.20;99.90;;;;;;5051929;28;20037;-72
2023/07/23 04:15:05;;;;;;;11.20;6.05;;;15.10;99.90;;;;;;5051803;28;20405;-72
2023/07/23 04:17:32;;;;;;;10.95;6.28;;;15.20;99.90;;;;;;5051818;28;20048;-72
2023/07/23 04:19:57;;;;;;;10.30;5.65;;;15.20;99.90;;;;;;5051280;28;20044;-72
2023/07/23 04:22:23;;;;;;;11.43;6.65;;;15.20;99.90;;;;;;5053373;28;20094;-72
2023/07/23 04:24:49;;;;;;;10.65;6.13;;;15.10;99.90;;;;;;5051529;28;20052;-72
2023/07/23 04:27:15;;;;;;;10.45;5.65;;;15.10;99.90;;;;;;5050037;28;20136;-72
2023/07/23 04:29:40;;;;;;;13.10;6.47;;;15.20;99.90;;;;;;5051408;28;20048;-72
2023/07/23 04:32:06;;;;;;;12.20;5.80;;;15.20;99.90;;;;;;5051662;28;20057;-72
2023/07/23 04:34:32;;;;;;;11.05;6.28;;;15.10;99.90;;;;;;5051542;28;20543;-72
2023/07/23 04:36:58;;;;;;;9.52;6.00;;;15.20;99.90;;;;;;5051144;28;20076;-72
2023/07/23 04:39:24;;;;;;;12.43;5.80;;;15.20;99.90;;;;;;5051748;28;20043;-72
2023/07/23 04:41:50;;;;;;;9.73;5.85;;;15.10;99.90;;;;;;5049888;28;20052;-72
2023/07/23 04:44:15;;;;;;;10.90;6.03;;;15.20;99.90;;;;;;5052296;28;20092;-72
2023/07/23 04:46:41;;;;;;;9.95;5.82;;;15.20;99.90;;;;;;5052564;28;20162;-72
2023/07/23 04:49:07;;;;;;;13.23;6.28;;;15.20;99.90;;;;;;5050821;28;20071;-72
2023/07/23 04:51:33;;;;;;;9.98;5.25;;;15.20;99.90;;;;;;5052056;28;20041;-72
2023/07/23 04:53:58;;;;;;;10.43;5.70;;;15.30;99.90;;;;;;5052564;28;20037;-72
2023/07/23 04:56:24;;;;;;;11.57;5.75;;;15.30;99.90;;;;;;5051538;28;20049;-72
2023/07/23 04:58:50;;;;;;;9.45;5.70;;;15.30;99.90;;;;;;5051956;28;20044;-72
2023/07/23 05:01:16;;;;;;;10.93;6.38;;;15.40;99.90;;;;;;5051158;28;20048;-72
2023/07/23 05:03:41;;;;;;;10.07;5.82;;;15.30;99.90;;;;;;5050127;28;20128;-72
2023/07/23 05:06:07;;;;;;;10.68;6.00;;;15.20;99.90;;;;;;5052746;28;20041;-72
2023/07/23 05:08:34;;;;;;;9.23;5.32;;;15.20;99.90;;;;;;5049625;28;20051;-72
2023/07/23 05:11:02;;;;;;;9.35;5.35;;;15.20;99.90;;;;;;5050892;28;20055;-72
2023/07/23 05:13:28;;;;;;;8.15;5.72;;;15.30;99.90;;;;;;5052172;28;20037;-73
2023/07/23 05:15:54;;;;;;;9.70;5.82;;;15.20;99.90;;;;;;5050050;28;20071;-73
2023/07/23 05:18:20;;;;;;;9.20;5.15;;;15.20;99.90;;;;;;5052455;28;20037;-72
2023/07/23 05:20:45;;;;;;;9.45;5.05;;;15.20;99.90;;;;;;5050715;28;20408;-73
2023/07/23 05:23:11;;;;;;;9.73;5.47;;;15.20;99.90;;;;;;5049989;28;20476;-72
2023/07/23 05:25:37;;;;;;;10.27;5.88;;;15.20;99.90;;;;;;5050841;28;20087;-72
2023/07/23 05:28:03;;;;;;;8.93;4.55;;;15.30;99.90;;;;;;5051899;28;20036;-72
2023/07/23 05:30:34;;;;;;;9.15;6.35;;;15.30;99.90;;;;;;5051233;28;20053;-72
2023/07/23 05:33:00;;;;;;;11.95;5.85;;;15.20;99.90;;;;;;5054944;28;20056;-72
2023/07/23 05:35:28;;;;;;;10.23;5.90;;;15.10;99.90;;;;;;5055329;28;20045;-72
2023/07/23 05:37:57;;;;;;;10.02;6.55;;;15.20;99.90;;;;;;5053198;28;20128;-73
2023/07/23 05:40:22;;;;;;;12.52;7.15;;;15.20;99.90;;;;;;5054543;28;20128;-72
2023/07/23 05:42:48;;;;;;;10.68;5.80;;;15.20;99.90;;;;;;5055686;28;20080;-73
2023/07/23 05:45:14;;;;;;;10.23;6.28;;;15.10;99.90;;;;;;5054369;28;20102;-72
2023/07/23 05:47:39;;;;;;;10.25;5.45;;;15.10;99.90;;;;;;5054543;28;20473;-73
2023/07/23 05:50:06;;;;;;;12.30;6.15;;;15.10;99.90;;;;;;5054323;28;20052;-72
2023/07/23 05:52:37;;;;;;;9.50;6.30;;;15.10;99.90;;;;;;5054970;28;20255;-73
2023/07/23 05:55:06;;;;;;;11.75;5.35;;;15.10;99.90;;;;;;5055876;28;20091;-73
2023/07/23 05:57:32;;;;;;;8.07;4.82;;;15.20;99.90;;;;;;5054103;28;20419;-72
2023/07/23 05:59:58;;;;;;;9.82;5.57;;;15.20;99.90;;;;;;5054594;28;20040;-72
2023/07/23 06:02:23;;;;;;;9.93;5.93;;;15.20;99.90;;;;;;5053624;28;20052;-72
2023/07/23 06:04:52;;;;;;;11.40;6.78;;;15.10;99.90;;;;;;5054512;28;20045;-73
2023/07/23 06:07:18;;;;;;;9.50;4.57;;;15.20;99.90;;;;;;5055642;28;20053;-73
2023/07/23 06:09:46;;;;;;;10.52;6.13;;;15.20;99.90;;;;;;5055016;28;20099;-71
2023/07/23 06:12:12;;;;;;;12.50;6.72;;;15.20;99.90;;;;;;5053735;28;20045;-73
2023/07/23 06:14:37;;;;;;;9.77;5.63;;;15.20;99.90;;;;;;5055366;28;20124;-73
2023/07/23 06:17:03;;;;;;;11.45;6.25;;;15.30;99.90;;;;;;5055484;28;20488;-73
2023/07/23 06:19:29;;;;;;;11.45;6.30;;;15.30;99.90;;;;;;5054606;28;20512;-73
2023/07/23 06:21:55;;;;;;;11.60;6.70;;;15.30;99.90;;;;;;5055136;28;20392;-73
2023/07/23 06:24:23;;;;;;;8.68;5.43;;;15.20;99.90;;;;;;5053335;28;20497;-73
2023/07/23 06:26:49;;;;;;;10.68;5.43;;;15.20;99.90;;;;;;5052919;28;20079;-72
2023/07/23 06:29:15;;;;;;;11.85;6.50;;;15.20;99.90;;;;;;5054150;28;20045;-72
2023/07/23 06:31:44;;;;;;;13.07;7.05;;;15.20;99.90;;;;;;5053763;28;20041;-73
2023/07/23 06:34:09;;;;;;;10.63;6.38;;;15.20;99.90;;;;;;5053359;28;20139;-73
2023/07/23 06:36:38;;;;;;;8.30;5.05;;;15.20;99.90;;;;;;5054613;28;20435;-72
2023/07/23 06:39:04;;;;;;;8.50;5.15;;;15.30;99.90;;;;;;5040422;28;20046;-72
2023/07/23 06:41:29;;;;;;;10.70;6.10;;;15.30;99.90;;;;;;5037173;28;20088;-72
2023/07/23 06:43:55;;;;;;;12.40;6.57;;;15.20;99.90;;;;;;5044834;28;20093;-73
2023/07/23 06:46:21;;;;;;;13.18;7.20;;;15.70;99.90;;;;;;5050929;28;20037;-73
2023/07/23 06:48:47;;;;;;;11.57;6.32;;;15.30;99.90;;;;;;5032795;28;20049;-73
2023/07/23 06:51:13;;;;;;;10.88;6.80;;;15.20;99.90;;;;;;5038649;28;20124;-73
2023/07/23 06:53:39;;;;;;;13.02;7.13;;;15.20;99.90;;;;;;5033340;28;20040;-73
2023/07/23 06:56:07;;;;;;;11.48;5.93;;;15.30;99.90;;;;;;5032906;28;20482;-73
2023/07/23 06:58:38;;;;;;;13.25;7.07;;;15.30;99.90;;;;;;5033530;28;20056;-73
2023/07/23 07:01:05;;;;;;;16.20;7.38;;;15.30;99.90;;;;;;5034167;28;20040;-73
2023/07/23 07:03:36;;;;;;;12.90;7.50;;;15.30;99.90;;;;;;5041844;28;20083;-73
2023/07/23 07:06:03;;;;;;;11.68;7.15;;;15.30;99.90;;;;;;5034648;28;20175;-73
2023/07/23 07:08:29;;;;;;;12.50;8.10;;;15.40;99.90;;;;;;5034283;28;20041;-73
2023/07/23 07:11:03;;;;;;;12.52;7.30;;;15.40;99.90;;;;;;5034422;28;20052;-73
2023/07/23 07:13:30;;;;;;;11.30;7.25;;;15.50;99.90;;;;;;5033220;28;20055;-72
2023/07/23 07:15:59;;;;;;;13.73;7.75;;;15.50;99.90;;;;;;5036242;28;20061;-73
2023/07/23 07:18:28;;;;;;;10.10;7.00;;;15.70;99.90;;;;;;5032908;28;20048;-73
2023/07/23 07:20:59;;;;;;;11.77;7.63;;;15.70;99.90;;;;;;5033948;28;20050;-73
2023/07/23 07:23:29;;;;;;;15.05;7.78;;;15.70;99.90;;;;;;5032512;28;20044;-73
2023/07/23 07:25:56;;;;;;;11.30;7.10;;;15.80;99.90;;;;;;5034421;28;20038;-73
2023/07/23 07:28:27;;;;;;;10.63;7.00;;;15.80;99.90;;;;;;5037236;28;20559;-73
2023/07/23 07:31:00;;;;;;;13.52;7.45;;;15.80;99.90;;;;;;5033160;28;20573;-73
2023/07/23 07:33:27;;;;;;;17.08;8.32;;;15.80;99.90;;;;;;5034200;28;20037;-73
2023/07/23 07:35:58;;;;;;;14.68;8.05;;;15.80;99.90;;;;;;5032214;28;20080;-73
2023/07/23 07:38:23;;;;;;;14.23;8.32;;;15.80;99.90;;;;;;5044076;28;20070;-73
2023/07/23 07:40:50;;;;;;;13.32;8.13;;;15.90;99.90;;;;;;5046705;28;20489;-73
2023/07/23 07:43:16;;;;;;;17.05;9.73;;;16.00;99.90;;;;;;5031971;28;20077;-73
2023/07/23 07:45:45;;;;;;;16.30;9.23;;;16.00;99.90;;;;;;5038572;28;20069;-73
2023/07/23 07:48:11;;;;;;;16.42;10.65;;;16.00;99.90;;;;;;5049663;28;20048;-73
2023/07/23 07:50:37;;;;;;;16.42;10.05;;;15.90;99.90;;;;;;5033538;28;20041;-73
2023/07/23 07:53:03;;;;;;;13.82;9.82;;;16.00;99.90;;;;;;5038796;28;20046;-73
2023/07/23 07:55:30;;;;;;;15.75;8.60;;;16.10;99.90;;;;;;5032398;28;20037;-74
2023/07/23 07:57:56;;;;;;;15.23;10.60;;;16.00;99.90;;;;;;5031466;28;20052;-73
2023/07/23 08:00:22;;;;;;;12.23;9.55;;;16.30;99.90;;;;;;5032315;28;20045;-73
2023/07/23 08:02:48;;;;;;;15.10;10.93;;;16.10;99.90;;;;;;5032039;28;20452;-73
2023/07/23 08:05:17;;;;;;;16.38;11.02;;;16.20;99.90;;;;;;5039591;28;20175;-74
2023/07/23 08:07:44;;;;;;;14.10;9.75;;;16.30;99.90;;;;;;5032132;28;20041;-73
2023/07/23 08:10:10;;;;;;;15.95;10.70;;;16.30;99.90;;;;;;5032321;28;20050;-74
2023/07/23 08:12:40;;;;;;;12.95;9.50;;;16.40;99.90;;;;;;5046047;28;20051;-74
2023/07/23 08:15:09;;;;;;;14.80;8.52;;;16.40;99.90;;;;;;5051821;28;20048;-73
2023/07/23 08:17:35;;;;;;;13.90;9.45;;;16.40;99.90;;;;;;5051246;28;20596;-73
2023/07/23 08:20:03;;;;;;;13.27;9.80;;;16.40;99.90;;;;;;5051036;28;20128;-74
2023/07/23 08:22:29;;;;;;;14.27;10.38;;;16.50;99.90;;;;;;5052182;28;20068;-73
2023/07/23 08:24:55;;;;;;;11.88;9.00;;;16.40;99.90;;;;;;5051019;28;20037;-73
2023/07/23 08:27:22;;;;;;;13.90;10.07;;;16.40;99.90;;;;;;5051104;28;20071;-73
2023/07/23 08:29:48;;;;;;;13.13;9.07;;;16.50;99.90;;;;;;5051227;28;20055;-73
2023/07/23 08:32:16;;;;;;;12.80;8.27;;;16.60;99.90;;;;;;5052854;28;20124;-73
2023/07/23 08:34:46;;;;;;;10.13;7.32;;;16.70;99.90;;;;;;5050833;28;20056;-73
2023/07/23 08:37:12;;;;;;;9.70;7.57;;;16.60;99.90;;;;;;5051862;28;20052;-73
2023/07/23 08:39:39;;;;;;;10.63;7.15;;;16.50;99.90;;;;;;5051721;28;20477;-72
2023/07/23 08:42:16;;;;;;;9.45;6.07;;;16.50;99.90;;;;;;5050922;28;20060;-73
2023/07/23 08:45:10;;;;;;;9.68;5.80;;;16.50;99.90;;;;;;5052432;28;20045;-72
2023/07/23 08:47:38;;;;;;;8.18;5.90;;;16.50;99.90;;;;;;5050068;28;20052;-73
2023/07/23 08:50:05;;;;;;;10.10;6.80;;;16.50;99.90;;;;;;5051338;28;20040;-74
2023/07/23 08:52:35;;;;;;;8.85;6.32;;;16.40;99.90;;;;;;5052671;28;20048;-73
2023/07/23 08:55:01;;;;;;;9.30;6.32;;;16.50;99.90;;;;;;5051936;28;20041;-73
2023/07/23 08:57:27;;;;;;;10.88;6.43;;;16.60;99.90;;;;;;5052698;28;20102;-73
2023/07/23 08:59:54;;;;;;;11.80;7.05;;;16.70;99.90;;;;;;5051053;28;20098;-73
2023/07/23 09:02:22;;;;;;;14.13;9.55;;;16.70;99.90;;;;;;5050553;28;20103;-73
2023/07/23 09:04:48;;;;;;;13.98;11.27;;;16.70;99.90;;;;;;5050828;28;20049;-74
2023/07/23 09:07:16;;;;;;;14.45;11.45;;;16.70;99.90;;;;;;5051860;28;20447;-73
2023/07/23 09:09:42;;;;;;;15.40;10.70;;;16.80;99.90;;;;;;5050261;28;20056;-73
2023/07/23 09:12:08;;;;;;;14.98;11.80;;;16.80;99.90;;;;;;5052334;28;20456;-73
2023/07/23 09:14:42;;;;;;;13.48;11.10;;;16.80;99.90;;;;;;5050780;28;20374;-74
2023/07/23 09:17:20;;;;;;;14.10;10.10;;;16.80;99.90;;;;;;5051193;28;20094;-73
2023/07/23 09:19:45;;;;;;;14.70;12.07;;;16.80;99.90;;;;;;5050790;28;20570;-73
2023/07/23 09:22:11;;;;;;;14.48;11.60;;;16.90;99.90;;;;;;5050179;28;20148;-72
2023/07/23 09:24:37;;;;;;;15.38;13.38;;;16.90;99.90;;;;;;5050872;28;20088;-73
2023/07/23 09:27:03;;;;;;;16.10;11.10;;;16.80;99.90;;;;;;5052361;28;20068;-73
2023/07/23 09:29:38;;;;;;;17.52;14.32;;;16.80;99.90;;;;;;5049976;28;20049;-72
2023/07/23 09:32:06;;;;;;;20.67;15.00;;;16.90;99.90;;;;;;5050729;28;20559;-71
2023/07/23 09:34:33;;;;;;;18.48;14.52;;;16.90;99.90;;;;;;5050980;28;20045;-72
2023/07/23 09:36:59;;;;;;;18.25;14.48;;;16.90;99.90;;;;;;5049986;28;20071;-72
2023/07/23 09:39:25;;;;;;;18.63;14.98;;;16.90;99.90;;;;;;5051976;28;20123;-72
2023/07/23 09:41:51;;;;;;;19.67;15.73;;;16.90;99.90;;;;;;5049931;28;20740;-72
2023/07/23 09:44:18;;;;;;;17.83;14.32;;;17.00;99.90;;;;;;5047653;28;20853;-73
2023/07/23 09:46:47;;;;;;;23.33;15.95;;;17.10;99.90;;;;;;5044781;28;20052;-73
2023/07/23 09:49:13;;;;;;;18.80;12.80;;;17.20;99.90;;;;;;5049485;28;20037;-72
2023/07/23 09:51:51;;;;;;;21.73;16.25;;;17.80;99.90;;;;;;5046828;28;20051;-73
2023/07/23 09:54:17;;;;;;;19.75;14.30;;;17.10;99.90;;;;;;5038214;28;20065;-72
2023/07/23 09:56:45;;;;;;;17.48;11.68;;;17.10;99.90;;;;;;5050711;28;20098;-72
2023/07/23 09:59:11;;;;;;;19.92;14.30;;;17.20;99.90;;;;;;5036856;28;20056;-71
2023/07/23 10:01:38;;;;;;;17.65;11.77;;;17.20;99.90;;;;;;5030671;28;20072;-72
2023/07/23 10:04:05;;;;;;;16.23;12.85;;;17.30;99.90;;;;;;5031612;28;20044;-73
2023/07/23 10:06:31;;;;;;;19.08;14.07;;;17.30;99.90;;;;;;5033020;28;20042;-72
2023/07/23 10:08:57;;;;;;;17.45;12.60;;;17.40;99.90;;;;;;5046912;28;20072;-72
2023/07/23 10:11:23;;;;;;;14.68;11.68;;;17.40;99.90;;;;;;5030886;28;20049;-72
2023/07/23 10:13:50;;;;;;;19.13;13.73;;;17.30;99.90;;;;;;5051620;28;20051;-72
2023/07/23 10:16:23;;;;;;;22.17;15.15;;;17.30;99.90;;;;;;5036761;28;20044;-72
2023/07/23 10:18:51;;;;;;;18.13;13.85;;;17.30;99.90;;;;;;5045203;28;20425;-72
2023/07/23 10:21:19;;;;;;;16.55;12.90;;;17.20;99.90;;;;;;5041708;28;20041;-73
2023/07/23 10:23:57;;;;;;;18.05;11.48;;;17.20;99.90;;;;;;5042007;28;20038;-73
2023/07/23 10:26:37;;;;;;;15.40;10.30;;;17.20;99.90;;;;;;5040926;28;20045;-73
2023/07/23 10:29:12;;;;;;;17.55;12.52;;;17.30;99.90;;;;;;5040421;28;20041;-73
2023/07/23 10:31:39;;;;;;;14.82;12.73;;;17.40;99.90;;;;;;5044383;28;20120;-74
2023/07/23 10:34:25;;;;;;;20.60;16.40;;;17.40;99.90;;;;;;5042423;28;20436;-73
2023/07/23 10:37:14;;;;;;;19.80;14.77;;;17.40;99.90;;;;;;5051329;28;20538;-73
2023/07/23 10:39:51;;;;;;;24.80;17.38;;;17.50;99.90;;;;;;5051743;28;20044;-74
2023/07/23 10:42:34;;;;;;;23.70;15.57;;;17.40;99.90;;;;;;5052367;28;20067;-73
2023/07/23 10:45:14;;;;;;;18.75;13.98;;;17.60;99.90;;;;;;5038145;28;20051;-73
2023/07/23 10:47:47;;;;;;;21.80;16.75;;;17.60;99.90;;;;;;5032826;28;20045;-74
2023/07/23 10:50:14;;;;;;;19.83;14.13;;;17.70;99.90;;;;;;5035310;28;20457;-73
2023/07/23 10:52:59;;;;;;;16.77;13.23;;;17.60;99.90;;;;;;5034508;28;20050;-73
2023/07/23 10:55:47;;;;;;;17.67;13.32;;;17.60;99.90;;;;;;5033965;28;20045;-73
2023/07/23 10:58:15;;;;;;;17.50;13.38;;;17.60;99.90;;;;;;5034447;28;20099;-73
2023/07/23 11:01:07;;;;;;;14.85;10.63;;;17.70;99.90;;;;;;5049048;28;20045;-75
2023/07/23 11:03:32;;;;;;;16.63;11.18;;;17.70;99.90;;;;;;5049338;28;20053;-74
2023/07/23 11:05:58;;;;;;;16.50;11.63;;;17.70;99.90;;;;;;5040069;28;20132;-76
2023/07/23 11:08:26;;;;;;;19.27;13.48;;;17.70;99.90;;;;;;5040031;28;20143;-76
2023/07/23 11:11:02;;;;;;;18.17;14.15;;;17.60;99.90;;;;;;5054370;28;20040;-74
2023/07/23 11:13:33;;;;;;;17.73;13.95;;;17.50;99.90;;;;;;5053199;28;20041;-75
2023/07/23 11:16:00;;;;;;;17.90;13.32;;;17.40;99.90;;;;;;5053540;28;20044;-76
2023/07/23 11:18:30;;;;;;;20.15;13.65;;;17.40;99.90;;;;;;5054072;28;20444;-73
2023/07/23 11:20:57;;;;;;;20.88;13.65;;;17.50;99.90;;;;;;5052848;28;20037;-74
2023/07/23 11:23:25;;;;;;;18.65;12.98;;;17.30;99.90;;;;;;5053755;28;20045;-76
2023/07/23 11:25:52;;;;;;;19.80;12.60;;;17.40;99.90;;;;;;5053974;28;20124;-76
2023/07/23 11:28:19;;;;;;;19.00;14.52;;;17.40;99.90;;;;;;5039083;28;20053;-76
2023/07/23 11:30:49;;;;;;;19.50;15.00;;;17.40;99.90;;;;;;5053118;28;20049;-74
2023/07/23 11:33:16;;;;;;;17.95;13.63;;;17.50;99.90;;;;;;5054367;28;20159;-73
2023/07/23 11:35:48;;;;;;;17.65;13.13;;;17.40;99.90;;;;;;5052845;28;20052;-75
2023/07/23 11:38:14;;;;;;;16.42;13.25;;;17.50;99.90;;;;;;5042072;28;20523;-75
2023/07/23 11:40:40;;;;;;;17.40;12.07;;;17.60;99.90;;;;;;5042566;28;20049;-75
2023/07/23 11:43:07;;;;;;;18.58;13.40;;;17.70;99.90;;;;;;5045655;28;20049;-77
2023/07/23 11:45:44;;;;;;;19.45;14.13;;;17.80;99.90;;;;;;5045187;28;20033;-75
2023/07/23 11:48:17;;;;;;;16.92;11.93;;;17.80;99.90;;;;;;5047340;28;20503;-74
2023/07/23 11:50:47;;;;;;;16.58;14.13;;;17.90;99.90;;;;;;5045996;28;20049;-75
2023/07/23 11:53:30;;;;;;;16.77;12.77;;;17.90;99.90;;;;;;5044014;28;20041;-72
2023/07/23 11:56:13;;;;;;;14.48;10.98;;;17.90;99.90;;;;;;5042233;28;20123;-74
2023/07/23 11:58:40;;;;;;;13.40;9.85;;;18.00;99.90;;;;;;5051225;28;20502;-75
2023/07/23 12:01:08;;;;;;;12.05;10.43;;;18.10;99.90;;;;;;5039032;28;20087;-76
2023/07/23 12:03:40;;;;;;;11.98;9.77;;;18.10;99.90;;;;;;5050614;28;20048;-74
2023/07/23 12:06:14;;;;;;;12.70;10.18;;;18.10;99.90;;;;;;5034708;28;20053;-73
2023/07/23 12:08:45;;;;;;;10.43;8.13;;;18.10;99.90;;;;;;5049704;28;20511;-75
2023/07/23 12:11:12;;;;;;;12.25;9.05;;;18.40;99.90;;;;;;5040288;28;20137;-74
2023/07/23 12:13:45;;;;;;;13.48;9.80;;;18.50;99.90;;;;;;5044863;28;20041;-73
2023/07/23 12:24:44;;;;;;;9.63;7.23;;;19.10;99.90;;;;;;1177972;22;20410;-75
2023/07/23 12:27:10;;;;;;;12.10;8.85;;;19.30;99.90;;;;;;5009941;28;20337;-74
2023/07/23 12:29:50;;;;;;;12.25;8.27;;;19.30;99.90;;;;;;4982519;28;20085;-71
2023/07/23 12:32:19;;;;;;;7.80;5.93;;;19.40;99.90;;;;;;4991029;28;20065;-74
2023/07/23 12:34:46;;;;;;;12.18;6.70;;;19.50;99.90;;;;;;4992989;28;20058;-74
2023/07/23 12:37:15;;;;;;;8.00;5.93;;;19.40;99.90;;;;;;4993060;28;20409;-74
2023/07/23 12:39:42;;;;;;;7.30;4.80;;;19.40;99.90;;;;;;4993247;28;20560;-74
2023/07/23 12:42:08;;;;;;;8.82;5.60;;;19.40;99.90;;;;;;5000607;28;20091;-74
2023/07/23 12:44:34;;;;;;;7.57;4.90;;;18.40;99.90;;;;;;5011581;28;20054;-72
2023/07/23 12:47:00;;;;;;;10.95;5.15;;;19.50;99.90;;;;;;5012213;28;20311;-72